createdAt,value
2018-06-09T00:00:45.532Z,5.58
2018-06-09T00:01:49.553Z,4.62
2018-06-09T00:02:53.613Z,5.70
2018-06-09T00:03:57.670Z,4.53
2018-06-09T00:05:02.087Z,5.40
2018-06-09T00:06:06.466Z,5.10
2018-06-09T00:07:10.556Z,4.47
2018-06-09T00:08:14.563Z,5.78
2018-06-09T00:09:18.582Z,5.10
2018-06-09T00:10:22.605Z,4.40
2018-06-09T00:11:26.338Z,5.30
2018-06-09T00:12:30.275Z,6.35
2018-06-09T00:13:34.315Z,5.30
2018-06-09T00:14:38.430Z,7.55
2018-06-09T00:15:42.450Z,5.62
2018-06-09T00:16:46.409Z,5.72
2018-06-09T00:17:50.367Z,5.20
2018-06-09T00:18:54.399Z,5.65
2018-06-09T00:19:58.427Z,5.30
2018-06-09T00:21:02.214Z,5.87
2018-06-09T00:22:06.088Z,5.92
2018-06-09T00:23:10.143Z,6.00
2018-06-09T00:24:14.145Z,5.87
2018-06-09T00:25:18.239Z,7.50
2018-06-09T00:26:22.262Z,5.60
2018-06-09T00:27:26.347Z,5.78
2018-06-09T00:28:30.403Z,5.97
2018-06-09T00:29:34.440Z,4.90
2018-06-09T00:30:38.482Z,6.85
2018-06-09T00:31:42.498Z,6.05
2018-06-09T00:32:46.227Z,5.65
2018-06-09T00:33:50.107Z,5.45
2018-06-09T00:34:54.141Z,5.90
2018-06-09T00:35:58.156Z,5.40
2018-06-09T00:37:02.166Z,6.40
2018-06-09T00:38:06.501Z,6.35
2018-06-09T00:39:10.572Z,6.25
2018-06-09T00:40:14.654Z,5.83
2018-06-09T00:41:18.735Z,7.40
2018-06-09T00:42:22.851Z,5.33
2018-06-09T00:43:26.853Z,5.70
2018-06-09T00:44:30.879Z,6.03
2018-06-09T00:45:34.902Z,6.25
2018-06-09T00:46:38.940Z,6.28
2018-06-09T00:47:42.990Z,5.10
2018-06-09T00:48:47.044Z,5.80
2018-06-09T00:49:51.099Z,5.35
2018-06-09T00:50:55.063Z,5.53
2018-06-09T00:51:59.152Z,5.10
2018-06-09T00:53:03.189Z,5.25
2018-06-09T00:54:07.207Z,5.25
2018-06-09T00:55:11.253Z,5.67
2018-06-09T00:56:26.770Z,4.87
2018-06-09T00:57:31.097Z,6.30
2018-06-09T00:58:35.190Z,5.70
2018-06-09T00:59:39.226Z,5.30
2018-06-09T01:00:42.965Z,5.53
2018-06-09T01:01:46.942Z,6.17
2018-06-09T01:02:50.983Z,7.15
2018-06-09T01:03:55.027Z,5.65
2018-06-09T01:04:59.100Z,5.90
2018-06-09T01:06:03.082Z,5.25
2018-06-09T01:07:07.152Z,5.58
2018-06-09T01:08:11.193Z,6.75
2018-06-09T01:09:15.210Z,5.45
2018-06-09T01:10:19.260Z,7.55
2018-06-09T01:11:23.312Z,5.72
2018-06-09T01:12:27.273Z,5.03
2018-06-09T01:13:31.275Z,5.70
2018-06-09T01:14:35.447Z,5.45
2018-06-09T01:15:39.428Z,5.50
2018-06-09T01:16:43.430Z,5.05
2018-06-09T01:17:47.501Z,5.72
2018-06-09T01:18:51.469Z,5.72
2018-06-09T01:19:55.478Z,4.53
2018-06-09T01:20:59.632Z,6.30
2018-06-09T01:22:03.678Z,6.92
2018-06-09T01:23:07.837Z,5.85
2018-06-09T01:24:11.802Z,6.05
2018-06-09T01:25:15.879Z,5.22
2018-06-09T01:26:19.910Z,5.35
2018-06-09T01:27:23.946Z,5.90
2018-06-09T01:28:27.935Z,6.03
2018-06-09T01:29:31.980Z,5.85
2018-06-09T01:30:36.000Z,4.60
2018-06-09T01:31:40.052Z,5.17
2018-06-09T01:32:44.131Z,5.37
2018-06-09T01:33:48.249Z,6.12
2018-06-09T01:34:52.243Z,5.05
2018-06-09T01:35:56.262Z,6.30
2018-06-09T01:37:00.266Z,6.25
2018-06-09T01:38:04.543Z,5.42
2018-06-09T01:39:09.094Z,5.58
2018-06-09T01:40:13.142Z,6.40
2018-06-09T01:41:17.135Z,5.50
2018-06-09T01:42:21.106Z,6.10
2018-06-09T01:43:24.910Z,5.75
2018-06-09T01:44:28.823Z,7.50
2018-06-09T01:45:32.817Z,6.28
2018-06-09T01:46:36.835Z,5.42
2018-06-09T01:47:40.824Z,5.47
2018-06-09T01:48:44.873Z,5.97
2018-06-09T01:49:48.902Z,6.60
2018-06-09T01:50:52.904Z,6.42
2018-06-09T01:51:56.936Z,6.17
2018-06-09T01:53:00.983Z,5.72
2018-06-09T01:54:04.955Z,5.40
2018-06-09T01:55:08.981Z,5.47
2018-06-09T01:56:12.982Z,6.28
2018-06-09T01:57:17.004Z,5.42
2018-06-09T01:58:21.037Z,6.05
2018-06-09T01:59:25.136Z,6.12
2018-06-09T02:00:29.144Z,5.17
2018-06-09T02:01:33.461Z,5.85
2018-06-09T02:02:37.464Z,5.05
2018-06-09T02:03:41.525Z,5.37
2018-06-09T02:04:45.621Z,5.45
2018-06-09T02:05:49.654Z,5.30
2018-06-09T02:06:53.730Z,5.62
2018-06-09T02:07:57.763Z,5.67
2018-06-09T02:09:01.757Z,6.95
2018-06-09T02:10:05.943Z,5.35
2018-06-09T02:11:09.968Z,6.85
2018-06-09T02:12:13.982Z,6.37
2018-06-09T02:13:17.993Z,5.65
2018-06-09T02:14:22.109Z,5.37
2018-06-09T02:15:26.174Z,6.15
2018-06-09T02:16:30.214Z,8.73
2018-06-09T02:17:34.250Z,7.20
2018-06-09T02:18:38.251Z,5.95
2018-06-09T02:19:42.267Z,5.87
2018-06-09T02:20:46.244Z,6.75
2018-06-09T02:21:50.302Z,5.83
2018-06-09T02:22:54.300Z,5.83
2018-06-09T02:23:58.280Z,5.97
2018-06-09T02:25:02.303Z,6.12
2018-06-09T02:26:06.319Z,6.67
2018-06-09T02:27:10.362Z,6.12
2018-06-09T02:28:14.378Z,6.85
2018-06-09T02:29:18.497Z,6.97
2018-06-09T02:30:22.512Z,5.90
2018-06-09T02:31:26.624Z,5.95
2018-06-09T02:32:30.658Z,5.80
2018-06-09T02:33:34.703Z,7.25
2018-06-09T02:34:38.687Z,6.83
2018-06-09T02:35:42.699Z,10.28
2018-06-09T02:36:46.771Z,7.65
2018-06-09T02:37:50.734Z,7.12
2018-06-09T02:38:54.693Z,6.33
2018-06-09T02:39:58.768Z,6.40
2018-06-09T02:41:02.803Z,7.08
2018-06-09T02:42:06.888Z,6.58
2018-06-09T02:43:10.890Z,7.03
2018-06-09T02:44:14.883Z,5.75
2018-06-09T02:45:18.951Z,6.90
2018-06-09T02:46:22.964Z,9.13
2018-06-09T02:47:26.962Z,7.35
2018-06-09T02:48:30.958Z,6.75
2018-06-09T02:49:34.933Z,7.45
2018-06-09T02:50:38.971Z,7.58
2018-06-09T02:51:42.977Z,7.45
2018-06-09T02:52:47.122Z,7.55
2018-06-09T02:53:51.144Z,7.12
2018-06-09T02:54:55.138Z,7.40
2018-06-09T02:55:59.481Z,6.90
2018-06-09T02:57:03.500Z,7.17
2018-06-09T02:58:07.626Z,7.05
2018-06-09T02:59:11.718Z,7.85
2018-06-09T03:00:15.925Z,9.53
2018-06-09T03:01:19.977Z,7.60
2018-06-09T03:02:24.085Z,6.95
2018-06-09T03:03:28.078Z,7.80
2018-06-09T03:04:32.090Z,7.75
2018-06-09T03:05:36.133Z,8.38
2018-06-09T03:06:40.151Z,8.83
2018-06-09T03:07:44.177Z,8.25
2018-06-09T03:08:48.189Z,9.50
2018-06-09T03:09:52.154Z,8.40
2018-06-09T03:10:56.253Z,9.68
2018-06-09T03:12:00.307Z,8.38
2018-06-09T03:13:04.338Z,8.65
2018-06-09T03:14:08.362Z,9.05
2018-06-09T03:15:12.399Z,9.83
2018-06-09T03:16:16.370Z,12.10
2018-06-09T03:17:20.370Z,9.48
2018-06-09T03:18:24.391Z,11.73
2018-06-09T03:19:28.447Z,11.00
2018-06-09T03:20:32.502Z,10.03
2018-06-09T03:21:36.483Z,9.20
2018-06-09T03:22:40.487Z,8.90
2018-06-09T03:23:44.484Z,9.95
2018-06-09T03:24:48.469Z,9.60
2018-06-09T03:25:52.269Z,8.88
2018-06-09T03:26:56.183Z,9.10
2018-06-09T03:28:00.179Z,9.05
2018-06-09T03:29:04.162Z,8.93
2018-06-09T03:30:08.206Z,9.58
2018-06-09T03:31:12.332Z,9.40
2018-06-09T03:32:16.441Z,9.03
2018-06-09T03:33:20.428Z,9.53
2018-06-09T03:34:24.405Z,8.90
2018-06-09T03:35:28.422Z,9.88
2018-06-09T03:36:32.415Z,9.90
2018-06-09T03:37:36.422Z,9.55
2018-06-09T03:38:40.396Z,9.53
2018-06-09T03:39:44.344Z,9.80
2018-06-09T03:40:48.353Z,9.63
2018-06-09T03:41:52.401Z,9.40
2018-06-09T03:42:56.411Z,9.50
2018-06-09T03:44:00.469Z,10.03
2018-06-09T03:45:04.600Z,9.60
2018-06-09T03:46:08.558Z,9.00
2018-06-09T03:47:12.691Z,9.30
2018-06-09T03:48:16.699Z,10.82
2018-06-09T03:49:20.744Z,10.15
2018-06-09T03:50:24.752Z,10.85
2018-06-09T03:51:28.781Z,10.40
2018-06-09T03:52:32.823Z,9.90
2018-06-09T03:53:36.822Z,9.90
2018-06-09T03:54:40.802Z,10.55
2018-06-09T03:55:44.809Z,9.70
2018-06-09T03:56:48.796Z,9.68
2018-06-09T03:57:52.909Z,10.23
2018-06-09T03:58:56.694Z,9.40
2018-06-09T04:00:00.613Z,9.88
2018-06-09T04:01:04.651Z,8.60
2018-06-09T04:02:08.663Z,9.00
2018-06-09T04:03:12.687Z,9.28
2018-06-09T04:04:16.710Z,8.90
2018-06-09T04:05:20.663Z,9.35
2018-06-09T04:06:24.660Z,9.30
2018-06-09T04:07:28.637Z,9.68
2018-06-09T04:08:32.634Z,8.53
2018-06-09T04:09:36.662Z,8.08
2018-06-09T04:10:40.707Z,9.03
2018-06-09T04:11:44.719Z,10.70
2018-06-09T04:12:48.738Z,10.30
2018-06-09T04:13:52.738Z,8.65
2018-06-09T04:14:56.752Z,9.98
2018-06-09T04:16:00.772Z,10.35
2018-06-09T04:17:04.795Z,10.18
2018-06-09T04:18:08.813Z,9.85
2018-06-09T04:19:12.797Z,9.43
2018-06-09T04:20:16.615Z,9.50
2018-06-09T04:21:20.492Z,9.00
2018-06-09T04:22:24.456Z,9.58
2018-06-09T04:23:28.462Z,10.58
2018-06-09T04:24:32.473Z,8.90
2018-06-09T04:25:36.589Z,10.10
2018-06-09T04:26:40.605Z,9.50
2018-06-09T04:27:44.603Z,9.73
2018-06-09T04:28:48.598Z,8.90
2018-06-09T04:29:52.592Z,9.00
2018-06-09T04:30:56.612Z,9.48
2018-06-09T04:32:00.623Z,11.97
2018-06-09T04:33:04.627Z,9.15
2018-06-09T04:34:08.675Z,10.00
2018-06-09T04:35:12.702Z,9.25
2018-06-09T04:36:16.726Z,9.10
2018-06-09T04:37:20.809Z,9.93
2018-06-09T04:38:24.839Z,8.93
2018-06-09T04:39:28.988Z,9.00
2018-06-09T04:40:32.934Z,8.43
2018-06-09T04:41:37.042Z,8.73
2018-06-09T04:42:41.025Z,8.98
2018-06-09T04:43:45.107Z,8.95
2018-06-09T04:44:49.122Z,9.28
2018-06-09T04:45:53.120Z,9.70
2018-06-09T04:46:57.117Z,9.85
2018-06-09T04:48:01.133Z,9.83
2018-06-09T04:49:05.171Z,9.53
2018-06-09T04:50:09.212Z,8.95
2018-06-09T04:51:13.241Z,9.95
2018-06-09T04:52:17.288Z,10.40
2018-06-09T04:53:21.268Z,7.97
2018-06-09T04:54:25.309Z,9.80
2018-06-09T04:55:29.341Z,9.08
2018-06-09T04:56:33.372Z,9.25
2018-06-09T04:57:37.396Z,10.30
2018-06-09T04:58:41.399Z,9.75
2018-06-09T04:59:45.380Z,10.13
2018-06-09T05:00:49.374Z,9.15
2018-06-09T05:01:53.378Z,8.83
2018-06-09T05:02:57.429Z,9.43
2018-06-09T05:04:01.419Z,9.50
2018-06-09T05:05:05.490Z,9.78
2018-06-09T05:06:09.594Z,8.95
2018-06-09T05:07:13.619Z,10.30
2018-06-09T05:08:17.627Z,10.93
2018-06-09T05:09:21.749Z,10.08
2018-06-09T05:10:25.742Z,10.05
2018-06-09T05:11:29.865Z,9.85
2018-06-09T05:12:34.034Z,8.48
2018-06-09T05:13:38.044Z,10.03
2018-06-09T05:14:42.047Z,9.58
2018-06-09T05:15:46.103Z,9.25
2018-06-09T05:16:50.116Z,9.95
2018-06-09T05:17:54.155Z,8.58
2018-06-09T05:18:58.171Z,9.55
2018-06-09T05:20:02.155Z,8.70
2018-06-09T05:21:06.244Z,9.50
2018-06-09T05:22:10.258Z,8.08
2018-06-09T05:23:14.277Z,8.80
2018-06-09T05:24:18.281Z,9.35
2018-06-09T05:25:22.337Z,8.95
2018-06-09T05:26:26.375Z,10.15
2018-06-09T05:27:30.380Z,8.83
2018-06-09T05:28:34.457Z,8.60
2018-06-09T05:29:38.463Z,9.68
2018-06-09T05:30:42.521Z,8.50
2018-06-09T05:31:46.510Z,8.05
2018-06-09T05:32:50.562Z,9.68
2018-06-09T05:33:54.575Z,9.88
2018-06-09T05:34:58.565Z,9.20
2018-06-09T05:36:02.552Z,8.13
2018-06-09T05:37:06.591Z,8.40
2018-06-09T05:38:10.638Z,9.98
2018-06-09T05:39:14.647Z,9.88
2018-06-09T05:40:18.730Z,8.98
2018-06-09T05:41:22.708Z,8.13
2018-06-09T05:42:26.706Z,8.28
2018-06-09T05:43:30.482Z,8.48
2018-06-09T05:44:34.387Z,7.87
2018-06-09T05:45:38.398Z,13.55
2018-06-09T05:46:42.380Z,7.92
2018-06-09T05:47:46.442Z,8.43
2018-06-09T05:48:50.478Z,9.18
2018-06-09T05:49:54.470Z,8.45
2018-06-09T05:50:58.671Z,8.23
2018-06-09T05:52:02.748Z,8.40
2018-06-09T05:53:06.834Z,8.45
2018-06-09T05:54:11.085Z,8.38
2018-06-09T05:55:15.420Z,8.70
2018-06-09T05:56:19.818Z,9.15
2018-06-09T05:57:24.436Z,7.67
2018-06-09T05:58:28.584Z,9.08
2018-06-09T05:59:32.987Z,8.50
2018-06-09T06:00:37.243Z,7.87
2018-06-09T06:01:41.702Z,7.90
2018-06-09T06:02:46.818Z,7.83
2018-06-09T06:03:51.184Z,8.25
2018-06-09T06:04:55.321Z,7.65
2018-06-09T06:05:59.297Z,7.17
2018-06-09T06:07:03.760Z,8.30
2018-06-09T06:08:07.992Z,7.05
2018-06-09T06:09:12.534Z,7.22
2018-06-09T06:10:16.773Z,7.03
2018-06-09T06:11:21.057Z,8.03
2018-06-09T06:12:25.503Z,7.95
2018-06-09T06:13:29.903Z,7.85
2018-06-09T06:14:34.458Z,7.70
2018-06-09T06:15:38.735Z,7.28
2018-06-09T06:16:43.205Z,7.62
2018-06-09T06:17:47.304Z,8.13
2018-06-09T06:18:51.564Z,7.33
2018-06-09T06:19:55.282Z,8.03
2018-06-09T06:20:59.167Z,7.40
2018-06-09T06:22:03.187Z,7.65
2018-06-09T06:23:07.175Z,6.45
2018-06-09T06:24:11.203Z,6.97
2018-06-09T06:25:15.202Z,7.20
2018-06-09T06:26:19.202Z,7.35
2018-06-09T06:27:23.161Z,7.42
2018-06-09T06:28:27.169Z,7.67
2018-06-09T06:29:31.198Z,7.28
2018-06-09T06:30:35.208Z,7.72
2018-06-09T06:31:39.235Z,7.92
2018-06-09T06:32:43.239Z,7.05
2018-06-09T06:33:47.279Z,6.90
2018-06-09T06:34:51.316Z,8.20
2018-06-09T06:35:55.382Z,7.60
2018-06-09T06:36:59.483Z,7.15
2018-06-09T06:38:03.587Z,7.83
2018-06-09T06:39:08.906Z,6.47
2018-06-09T06:40:12.722Z,6.35
2018-06-09T06:41:16.604Z,7.40
2018-06-09T06:42:20.601Z,7.15
2018-06-09T06:43:24.645Z,6.87
2018-06-09T06:44:28.616Z,7.50
2018-06-09T06:45:32.678Z,8.35
2018-06-09T06:46:36.665Z,7.35
2018-06-09T06:47:40.711Z,6.97
2018-06-09T06:48:44.760Z,6.12
2018-06-09T06:49:48.719Z,7.90
2018-06-09T06:50:52.749Z,7.00
2018-06-09T06:51:56.731Z,7.92
2018-06-09T06:53:00.722Z,8.20
2018-06-09T06:54:04.717Z,7.45
2018-06-09T06:55:08.766Z,7.40
2018-06-09T06:56:12.741Z,9.45
2018-06-09T06:57:16.759Z,7.45
2018-06-09T06:58:20.803Z,7.42
2018-06-09T06:59:24.888Z,11.00
2018-06-09T07:00:28.841Z,9.13
2018-06-09T07:01:32.887Z,6.75
2018-06-09T07:02:37.011Z,7.40
2018-06-09T07:03:40.981Z,9.00
2018-06-09T07:04:45.146Z,7.40
2018-06-09T07:05:49.186Z,9.08
2018-06-09T07:06:53.201Z,7.17
2018-06-09T07:07:57.249Z,9.23
2018-06-09T07:09:01.237Z,7.17
2018-06-09T07:10:05.244Z,8.05
2018-06-09T07:11:09.306Z,9.43
2018-06-09T07:12:13.317Z,7.85
2018-06-09T07:13:17.083Z,9.13
2018-06-09T07:14:20.966Z,11.25
2018-06-09T07:15:24.962Z,7.55
2018-06-09T07:16:29.023Z,8.03
2018-06-09T07:17:32.995Z,7.60
2018-06-09T07:18:37.013Z,8.40
2018-06-09T07:19:41.030Z,8.33
2018-06-09T07:20:45.020Z,9.23
2018-06-09T07:21:49.111Z,7.95
2018-06-09T07:22:53.067Z,8.00
2018-06-09T07:23:57.086Z,9.85
2018-06-09T07:25:01.118Z,9.00
2018-06-09T07:26:05.320Z,9.53
2018-06-09T07:27:09.331Z,8.23
2018-06-09T07:28:16.050Z,9.53
2018-06-09T07:29:20.052Z,7.92
2018-06-09T07:30:24.053Z,8.98
2018-06-09T07:31:28.064Z,8.50
2018-06-09T07:32:32.052Z,9.78
2018-06-09T07:33:36.083Z,9.68
2018-06-09T07:34:40.080Z,9.88
2018-06-09T07:35:44.155Z,9.48
2018-06-09T07:36:48.176Z,9.60
2018-06-09T07:37:52.174Z,9.23
2018-06-09T07:38:56.143Z,9.83
2018-06-09T07:40:00.139Z,9.18
2018-06-09T07:41:04.150Z,10.28
2018-06-09T07:42:08.210Z,9.88
2018-06-09T07:43:12.253Z,10.00
2018-06-09T07:44:16.307Z,9.80
2018-06-09T07:45:20.308Z,10.10
2018-06-09T07:46:24.346Z,11.33
2018-06-09T07:47:28.415Z,9.38
2018-06-09T07:48:32.417Z,10.43
2018-06-09T07:49:36.446Z,9.80
2018-06-09T07:50:40.753Z,9.40
2018-06-09T07:51:44.756Z,11.33
2018-06-09T07:52:48.771Z,11.10
2018-06-09T07:53:52.771Z,10.05
2018-06-09T07:54:56.810Z,10.55
2018-06-09T07:56:00.830Z,10.85
2018-06-09T07:57:04.866Z,11.65
2018-06-09T07:58:08.857Z,10.18
2018-06-09T07:59:12.867Z,12.05
2018-06-09T08:00:16.930Z,11.33
2018-06-09T08:01:20.938Z,11.80
2018-06-09T08:02:24.711Z,12.30
2018-06-09T08:03:28.653Z,13.28
2018-06-09T08:04:32.673Z,10.55
2018-06-09T08:05:36.712Z,11.43
2018-06-09T08:06:40.730Z,11.83
2018-06-09T08:07:44.535Z,12.33
2018-06-09T08:08:48.467Z,11.60
2018-06-09T08:09:52.668Z,11.18
2018-06-09T08:10:56.661Z,11.83
2018-06-09T08:12:00.685Z,12.47
2018-06-09T08:13:04.691Z,12.73
2018-06-09T08:14:08.721Z,12.18
2018-06-09T08:15:12.794Z,11.88
2018-06-09T08:16:16.822Z,12.30
2018-06-09T08:17:21.149Z,10.98
2018-06-09T08:18:25.159Z,10.60
2018-06-09T08:19:29.219Z,10.98
2018-06-09T08:20:33.164Z,11.35
2018-06-09T08:21:37.025Z,11.25
2018-06-09T08:22:40.914Z,11.00
2018-06-09T08:23:44.891Z,10.78
2018-06-09T08:24:48.882Z,10.80
2018-06-09T08:25:52.896Z,11.95
2018-06-09T08:26:56.952Z,12.30
2018-06-09T08:28:00.747Z,12.37
2018-06-09T08:29:04.739Z,12.00
2018-06-09T08:30:08.706Z,12.23
2018-06-09T08:31:13.000Z,11.30
2018-06-09T08:32:17.038Z,11.85
2018-06-09T08:33:21.123Z,12.50
2018-06-09T08:34:25.158Z,12.90
2018-06-09T08:35:29.156Z,11.22
2018-06-09T08:36:33.182Z,12.07
2018-06-09T08:37:37.277Z,11.30
2018-06-09T08:38:41.277Z,16.40
2018-06-09T08:39:45.272Z,11.48
2018-06-09T08:40:49.336Z,11.10
2018-06-09T08:41:53.422Z,18.37
2018-06-09T08:42:57.404Z,18.57
2018-06-09T08:44:01.463Z,14.25
2018-06-09T08:45:05.491Z,13.75
2018-06-09T08:46:09.508Z,11.83
2018-06-09T08:47:13.535Z,14.13
2018-06-09T08:48:17.550Z,13.35
2018-06-09T08:49:21.637Z,12.10
2018-06-09T08:50:25.638Z,14.38
2018-06-09T08:51:29.694Z,11.03
2018-06-09T08:52:33.721Z,12.28
2018-06-09T08:53:37.723Z,12.95
2018-06-09T08:54:41.715Z,13.43
2018-06-09T08:55:45.678Z,12.45
2018-06-09T08:56:49.663Z,11.45
2018-06-09T08:57:53.657Z,11.00
2018-06-09T08:58:57.633Z,11.95
2018-06-09T09:00:01.625Z,11.68
2018-06-09T09:01:05.623Z,12.18
2018-06-09T09:02:09.641Z,14.13
2018-06-09T09:03:13.690Z,12.65
2018-06-09T09:04:17.675Z,11.45
2018-06-09T09:05:21.854Z,11.05
2018-06-09T09:06:25.876Z,11.35
2018-06-09T09:07:30.036Z,11.38
2018-06-09T09:08:34.207Z,11.63
2018-06-09T09:09:38.291Z,13.50
2018-06-09T09:10:42.336Z,12.03
2018-06-09T09:11:46.355Z,12.07
2018-06-09T09:12:50.393Z,11.53
2018-06-09T09:13:54.477Z,16.02
2018-06-09T09:14:58.511Z,14.70
2018-06-09T09:16:02.614Z,10.48
2018-06-09T09:17:06.650Z,12.50
2018-06-09T09:18:10.657Z,12.25
2018-06-09T09:19:14.696Z,17.75
2018-06-09T09:20:18.671Z,12.13
2018-06-09T09:21:22.659Z,11.90
2018-06-09T09:22:26.710Z,11.20
2018-06-09T09:23:30.683Z,10.80
2018-06-09T09:24:34.663Z,11.28
2018-06-09T09:25:38.640Z,11.55
2018-06-09T09:26:42.656Z,12.65
2018-06-09T09:27:46.609Z,11.63
2018-06-09T09:28:50.610Z,10.82
2018-06-09T09:29:54.594Z,12.63
2018-06-09T09:30:58.734Z,13.43
2018-06-09T09:32:02.822Z,13.18
2018-06-09T09:33:06.811Z,11.97
2018-06-09T09:34:10.788Z,11.40
2018-06-09T09:35:14.759Z,13.10
2018-06-09T09:36:18.656Z,11.70
2018-06-09T09:37:22.546Z,11.83
2018-06-09T09:38:26.500Z,12.30
2018-06-09T09:39:30.495Z,20.17
2018-06-09T09:40:34.518Z,12.30
2018-06-09T09:41:38.696Z,12.85
2018-06-09T09:42:42.690Z,12.10
2018-06-09T09:43:46.793Z,11.73
2018-06-09T09:44:50.776Z,10.75
2018-06-09T09:45:54.782Z,13.18
2018-06-09T09:46:58.864Z,10.63
2018-06-09T09:48:02.887Z,11.25
2018-06-09T09:49:06.895Z,11.30
2018-06-09T09:50:10.920Z,11.53
2018-06-09T09:51:14.959Z,11.43
2018-06-09T09:52:18.968Z,11.20
2018-06-09T09:53:22.977Z,12.10
2018-06-09T09:54:26.955Z,10.55
2018-06-09T09:55:30.931Z,11.12
2018-06-09T09:56:34.954Z,11.22
2018-06-09T09:58:10.062Z,11.35
2018-06-09T09:59:14.160Z,11.22
2018-06-09T10:00:23.210Z,11.38
2018-06-09T10:01:27.450Z,12.05
2018-06-09T10:02:31.288Z,12.10
2018-06-09T10:03:35.162Z,14.05
2018-06-09T10:04:39.296Z,14.90
2018-06-09T10:05:43.606Z,11.25
2018-06-09T10:06:47.629Z,13.40
2018-06-09T10:07:51.702Z,13.05
2018-06-09T10:08:55.685Z,12.40
2018-06-09T10:09:59.774Z,11.05
2018-06-09T10:11:03.928Z,10.50
2018-06-09T10:12:07.995Z,12.15
2018-06-09T10:13:11.999Z,11.10
2018-06-09T10:14:16.082Z,11.43
2018-06-09T10:15:20.138Z,11.63
2018-06-09T10:16:24.151Z,11.55
2018-06-09T10:17:28.244Z,10.60
2018-06-09T10:18:32.248Z,11.88
2018-06-09T10:19:36.342Z,13.38
2018-06-09T10:20:40.376Z,10.25
2018-06-09T10:21:44.363Z,9.75
2018-06-09T10:22:48.737Z,13.22
2018-06-09T10:23:53.130Z,11.12
2018-06-09T10:24:57.096Z,11.45
2018-06-09T10:26:01.167Z,11.03
2018-06-09T10:27:05.304Z,11.03
2018-06-09T10:28:09.556Z,11.43
2018-06-09T10:29:13.692Z,9.80
2018-06-09T10:30:17.732Z,10.98
2018-06-09T10:31:21.812Z,10.90
2018-06-09T10:32:25.808Z,10.95
2018-06-09T10:33:29.915Z,10.78
2018-06-09T10:34:34.367Z,11.33
2018-06-09T10:35:38.468Z,11.50
2018-06-09T10:36:42.615Z,10.82
2018-06-09T10:37:46.775Z,11.57
2018-06-09T10:38:50.933Z,11.38
2018-06-09T10:39:55.018Z,11.88
2018-06-09T10:40:59.290Z,12.13
2018-06-09T10:42:03.504Z,11.97
2018-06-09T10:43:08.022Z,12.25
2018-06-09T10:44:12.783Z,12.53
2018-06-09T10:45:17.122Z,11.33
2018-06-09T10:46:21.135Z,11.80
2018-06-09T10:47:25.650Z,10.03
2018-06-09T10:48:29.916Z,11.93
2018-06-09T10:49:34.389Z,11.95
2018-06-09T10:50:38.572Z,10.35
2018-06-09T10:51:42.554Z,10.95
2018-06-09T10:52:46.608Z,9.65
2018-06-09T10:53:50.733Z,10.95
2018-06-09T10:54:54.809Z,9.28
2018-06-09T10:55:58.775Z,10.08
2018-06-09T10:57:02.779Z,9.78
2018-06-09T10:58:06.756Z,10.85
2018-06-09T10:59:10.735Z,11.38
2018-06-09T11:00:14.535Z,11.78
2018-06-09T11:01:18.430Z,13.35
2018-06-09T11:02:22.462Z,10.93
2018-06-09T11:03:26.487Z,11.53
2018-06-09T11:04:30.515Z,11.45
2018-06-09T11:05:34.486Z,10.00
2018-06-09T11:06:38.490Z,11.83
2018-06-09T11:07:42.474Z,12.45
2018-06-09T11:08:46.476Z,20.00
2018-06-09T11:09:50.475Z,15.20
2018-06-09T11:10:54.518Z,10.58
2018-06-09T11:11:58.522Z,10.75
2018-06-09T11:13:02.708Z,12.43
2018-06-09T11:14:06.687Z,10.40
2018-06-09T11:15:10.689Z,9.60
2018-06-09T11:16:14.690Z,9.98
2018-06-09T11:17:18.761Z,19.77
2018-06-09T11:18:22.763Z,9.68
2018-06-09T11:19:26.778Z,12.18
2018-06-09T11:20:30.798Z,11.90
2018-06-09T11:21:34.786Z,11.35
2018-06-09T11:22:38.749Z,10.50
2018-06-09T11:23:42.774Z,11.03
2018-06-09T11:24:46.793Z,10.82
2018-06-09T11:25:50.775Z,10.35
2018-06-09T11:26:54.795Z,9.18
2018-06-09T11:27:58.860Z,10.88
2018-06-09T11:29:02.864Z,10.80
2018-06-09T11:30:06.657Z,11.85
2018-06-09T11:31:10.531Z,9.58
2018-06-09T11:32:14.542Z,10.60
2018-06-09T11:33:18.594Z,10.10
2018-06-09T11:34:22.578Z,10.95
2018-06-09T11:35:26.411Z,9.65
2018-06-09T11:36:30.323Z,9.33
2018-06-09T11:37:34.378Z,9.50
2018-06-09T11:38:38.384Z,9.88
2018-06-09T11:39:42.327Z,9.65
2018-06-09T11:40:46.347Z,10.15
2018-06-09T11:41:50.384Z,10.72
2018-06-09T11:42:54.383Z,10.03
2018-06-09T11:43:58.492Z,11.53
2018-06-09T11:45:02.706Z,10.35
2018-06-09T11:46:06.711Z,10.13
2018-06-09T11:47:10.875Z,10.63
2018-06-09T11:48:14.846Z,9.90
2018-06-09T11:49:18.922Z,9.98
2018-06-09T11:50:22.969Z,9.75
2018-06-09T11:51:26.741Z,12.78
2018-06-09T11:52:30.599Z,11.35
2018-06-09T11:53:34.670Z,11.10
2018-06-09T11:54:38.688Z,13.28
2018-06-09T11:55:42.700Z,13.30
2018-06-09T11:56:46.763Z,10.28
2018-06-09T11:57:51.064Z,11.12
2018-06-09T11:58:55.066Z,11.18
2018-06-09T11:59:59.111Z,10.95
2018-06-09T12:01:03.123Z,9.70
2018-06-09T12:02:07.109Z,10.70
2018-06-09T12:03:11.139Z,9.15
2018-06-09T12:04:15.161Z,9.78
2018-06-09T12:05:19.175Z,9.63
2018-06-09T12:06:22.984Z,12.85
2018-06-09T12:07:26.910Z,10.20
2018-06-09T12:08:30.926Z,10.50
2018-06-09T12:09:34.931Z,10.20
2018-06-09T12:10:38.959Z,9.13
2018-06-09T12:11:42.998Z,9.78
2018-06-09T12:12:47.022Z,10.32
2018-06-09T12:13:51.027Z,10.25
2018-06-09T12:14:55.013Z,9.73
2018-06-09T12:15:59.017Z,9.58
2018-06-09T12:17:03.302Z,10.38
2018-06-09T12:18:07.387Z,9.33
2018-06-09T12:19:11.559Z,9.18
2018-06-09T12:20:15.611Z,9.45
2018-06-09T12:21:19.637Z,8.90
2018-06-09T12:22:23.813Z,10.35
2018-06-09T12:23:27.832Z,9.78
2018-06-09T12:24:31.811Z,10.18
2018-06-09T12:25:35.803Z,11.18
2018-06-09T12:26:39.848Z,8.98
2018-06-09T12:27:43.843Z,9.05
2018-06-09T12:28:47.821Z,8.95
2018-06-09T12:29:51.603Z,9.08
2018-06-09T12:30:55.480Z,8.88
2018-06-09T12:31:59.470Z,8.53
2018-06-09T12:33:03.480Z,9.83
2018-06-09T12:34:07.413Z,10.18
2018-06-09T12:35:11.429Z,22.48
2018-06-09T12:36:15.164Z,11.15
2018-06-09T12:37:19.036Z,9.73
2018-06-09T12:38:23.030Z,9.70
2018-06-09T12:39:27.074Z,10.13
2018-06-09T12:40:31.054Z,9.23
2018-06-09T12:41:35.246Z,9.08
2018-06-09T12:42:39.298Z,8.70
2018-06-09T12:43:43.301Z,8.25
2018-06-09T12:44:47.265Z,10.10
2018-06-09T12:45:51.267Z,8.98
2018-06-09T12:46:55.264Z,9.83
2018-06-09T12:47:59.314Z,10.28
2018-06-09T12:49:03.106Z,10.08
2018-06-09T12:50:06.962Z,9.73
2018-06-09T12:51:10.996Z,9.28
2018-06-09T12:52:15.037Z,9.65
2018-06-09T12:53:19.038Z,9.95
2018-06-09T12:54:23.063Z,8.75
2018-06-09T12:55:27.061Z,9.00
2018-06-09T12:56:31.063Z,9.25
2018-06-09T12:57:35.028Z,10.05
2018-06-09T12:58:39.059Z,8.15
2018-06-09T12:59:43.031Z,8.85
2018-06-09T13:00:47.028Z,8.60
2018-06-09T13:01:50.973Z,9.00
2018-06-09T13:02:54.978Z,10.53
2018-06-09T13:03:58.929Z,8.45
2018-06-09T13:05:02.904Z,9.33
2018-06-09T13:06:06.915Z,9.15
2018-06-09T13:07:10.904Z,9.48
2018-06-09T13:08:14.883Z,9.13
2018-06-09T13:09:18.877Z,9.08
2018-06-09T13:10:22.833Z,11.00
2018-06-09T13:11:26.824Z,8.40
2018-06-09T13:12:31.300Z,10.25
2018-06-09T13:13:35.266Z,8.50
2018-06-09T13:14:39.266Z,8.50
2018-06-09T13:15:43.255Z,8.58
2018-06-09T13:16:47.194Z,9.83
2018-06-09T13:17:51.187Z,8.68
2018-06-09T13:18:55.190Z,8.95
2018-06-09T13:19:59.145Z,9.13
2018-06-09T13:21:03.164Z,9.40
2018-06-09T13:22:07.098Z,8.80
2018-06-09T13:23:11.149Z,9.50
2018-06-09T13:24:15.147Z,9.50
2018-06-09T13:25:19.127Z,10.08
2018-06-09T13:26:23.130Z,10.50
2018-06-09T13:27:27.111Z,8.93
2018-06-09T13:28:31.099Z,9.48
2018-06-09T13:29:35.051Z,8.75
2018-06-09T13:30:39.123Z,9.95
2018-06-09T13:31:43.148Z,8.70
2018-06-09T13:32:47.139Z,9.35
2018-06-09T13:33:51.135Z,9.75
2018-06-09T13:34:55.126Z,9.65
2018-06-09T13:35:59.145Z,9.23
2018-06-09T13:37:03.166Z,9.55
2018-06-09T13:38:07.134Z,8.08
2018-06-09T13:39:11.331Z,9.23
2018-06-09T13:40:15.375Z,9.25
2018-06-09T13:41:19.358Z,8.38
2018-06-09T13:42:23.351Z,8.38
2018-06-09T13:43:27.377Z,8.38
2018-06-09T13:44:31.318Z,8.25
2018-06-09T13:45:35.286Z,7.67
2018-06-09T13:46:39.268Z,9.00
2018-06-09T13:47:43.245Z,8.65
2018-06-09T13:48:47.225Z,8.20
2018-06-09T13:49:51.236Z,8.30
2018-06-09T13:50:55.226Z,9.00
2018-06-09T13:51:59.169Z,8.73
2018-06-09T13:53:03.215Z,7.65
2018-06-09T13:54:07.216Z,8.40
2018-06-09T13:55:11.198Z,8.65
2018-06-09T13:56:15.194Z,7.97
2018-06-09T13:57:19.192Z,9.18
2018-06-09T13:58:23.165Z,7.65
2018-06-09T13:59:27.195Z,9.40
2018-06-09T14:00:31.172Z,8.93
2018-06-09T14:01:35.861Z,8.65
2018-06-09T14:02:39.836Z,8.95
2018-06-09T14:03:43.823Z,8.80